sensor_id;sensor_type;location;lat;lon;timestamp;pressure;altitude;pressure_sealevel;temperature;humidity
77626;BME280;66794;43.764;10.436;2023-02-23T00:01:37;101857.63;;;8.39;100.00
77626;BME280;66794;43.764;10.436;2023-02-23T00:04:04;101817.84;;;8.10;100.00
77626;BME280;66794;43.764;10.436;2023-02-23T00:06:32;101851.53;;;8.47;100.00
77626;BME280;66794;43.764;10.436;2023-02-23T00:08:58;101831.13;;;8.63;100.00
77626;BME280;66794;43.764;10.436;2023-02-23T00:11:26;101832.44;;;8.69;100.00
77626;BME280;66794;43.764;10.436;2023-02-23T00:13:53;101829.84;;;8.48;100.00
77626;BME280;66794;43.764;10.436;2023-02-23T00:16:22;101847.13;;;8.76;100.00
77626;BME280;66794;43.764;10.436;2023-02-23T00:18:52;101848.69;;;8.79;100.00
77626;BME280;66794;43.764;10.436;2023-02-23T00:21:31;101847.28;;;8.84;100.00
77626;BME280;66794;43.764;10.436;2023-02-23T00:24:05;101829.34;;;8.74;100.00
77626;BME280;66794;43.764;10.436;2023-02-23T00:26:34;101848.13;;;8.85;100.00
77626;BME280;66794;43.764;10.436;2023-02-23T00:29:09;101846.38;;;8.74;100.00
77626;BME280;66794;43.764;10.436;2023-02-23T00:31:36;101851.78;;;8.64;100.00
77626;BME280;66794;43.764;10.436;2023-02-23T00:34:04;101850.59;;;8.27;100.00
77626;BME280;66794;43.764;10.436;2023-02-23T00:36:32;101803.06;;;7.84;100.00
77626;BME280;66794;43.764;10.436;2023-02-23T00:39:01;101805.84;;;7.73;100.00
77626;BME280;66794;43.764;10.436;2023-02-23T00:41:30;101828.56;;;8.01;100.00
77626;BME280;66794;43.764;10.436;2023-02-23T00:43:57;101842.06;;;7.80;100.00
77626;BME280;66794;43.764;10.436;2023-02-23T00:46:25;101836.38;;;8.04;100.00
77626;BME280;66794;43.764;10.436;2023-02-23T00:48:53;101831.84;;;8.04;100.00
77626;BME280;66794;43.764;10.436;2023-02-23T00:51:22;101790.28;;;7.86;100.00
77626;BME280;66794;43.764;10.436;2023-02-23T00:53:48;101833.38;;;7.97;100.00
77626;BME280;66794;43.764;10.436;2023-02-23T00:56:15;101843.88;;;8.21;100.00
77626;BME280;66794;43.764;10.436;2023-02-23T00:58:41;101840.31;;;8.21;100.00
77626;BME280;66794;43.764;10.436;2023-02-23T01:01:11;101832.66;;;8.26;100.00
77626;BME280;66794;43.764;10.436;2023-02-23T01:03:39;101838.28;;;8.13;100.00
77626;BME280;66794;43.764;10.436;2023-02-23T01:06:10;101816.41;;;7.85;100.00
77626;BME280;66794;43.764;10.436;2023-02-23T01:08:38;101811.34;;;7.92;100.00
77626;BME280;66794;43.764;10.436;2023-02-23T01:11:07;101841.19;;;8.21;100.00
77626;BME280;66794;43.764;10.436;2023-02-23T01:13:35;101819.66;;;8.10;100.00
77626;BME280;66794;43.764;10.436;2023-02-23T01:16:07;101815.72;;;8.14;100.00
77626;BME280;66794;43.764;10.436;2023-02-23T01:18:33;101819.19;;;7.74;100.00
77626;BME280;66794;43.764;10.436;2023-02-23T01:21:00;101821.47;;;7.79;100.00
77626;BME280;66794;43.764;10.436;2023-02-23T01:23:26;101815.41;;;7.65;100.00
77626;BME280;66794;43.764;10.436;2023-02-23T01:25:51;101827.13;;;7.55;100.00
77626;BME280;66794;43.764;10.436;2023-02-23T01:28:17;101817.53;;;7.41;100.00
77626;BME280;66794;43.764;10.436;2023-02-23T01:30:42;101793.13;;;7.43;100.00
77626;BME280;66794;43.764;10.436;2023-02-23T01:33:09;101823.13;;;7.70;100.00
77626;BME280;66794;43.764;10.436;2023-02-23T01:35:36;101806.63;;;7.63;100.00
77626;BME280;66794;43.764;10.436;2023-02-23T01:38:02;101832.72;;;7.63;100.00
77626;BME280;66794;43.764;10.436;2023-02-23T01:40:28;101798.78;;;7.40;100.00
77626;BME280;66794;43.764;10.436;2023-02-23T01:42:56;101807.38;;;7.54;100.00
77626;BME280;66794;43.764;10.436;2023-02-23T01:47:56;101829.75;;;7.87;100.00
77626;BME280;66794;43.764;10.436;2023-02-23T01:50:24;101822.88;;;7.73;100.00
77626;BME280;66794;43.764;10.436;2023-02-23T01:52:51;101772.81;;;7.59;100.00
77626;BME280;66794;43.764;10.436;2023-02-23T01:55:18;101778.59;;;7.76;100.00
77626;BME280;66794;43.764;10.436;2023-02-23T01:58:17;101809.69;;;8.01;100.00
77626;BME280;66794;43.764;10.436;2023-02-23T02:00:52;101797.53;;;7.44;100.00
77626;BME280;66794;43.764;10.436;2023-02-23T02:03:28;101783.53;;;7.29;100.00
77626;BME280;66794;43.764;10.436;2023-02-23T02:05:57;101781.16;;;7.35;100.00
77626;BME280;66794;43.764;10.436;2023-02-23T02:08:26;101768.72;;;7.44;100.00
77626;BME280;66794;43.764;10.436;2023-02-23T02:10:53;101775.13;;;7.64;100.00
77626;BME280;66794;43.764;10.436;2023-02-23T02:13:24;101774.00;;;7.67;100.00
77626;BME280;66794;43.764;10.436;2023-02-23T02:18:37;101764.19;;;7.86;100.00
77626;BME280;66794;43.764;10.436;2023-02-23T02:21:33;101789.81;;;8.02;100.00
77626;BME280;66794;43.764;10.436;2023-02-23T02:29:56;101791.75;;;7.69;100.00
77626;BME280;66794;43.764;10.436;2023-02-23T02:38:34;101777.41;;;7.48;100.00
77626;BME280;66794;43.764;10.436;2023-02-23T02:41:15;101779.84;;;7.72;100.00
77626;BME280;66794;43.764;10.436;2023-02-23T02:43:46;101776.34;;;7.60;100.00
77626;BME280;66794;43.764;10.436;2023-02-23T02:46:31;101766.31;;;7.62;100.00
77626;BME280;66794;43.764;10.436;2023-02-23T02:54:24;101761.06;;;7.91;100.00
77626;BME280;66794;43.764;10.436;2023-02-23T02:56:54;101752.59;;;7.96;100.00
77626;BME280;66794;43.764;10.436;2023-02-23T02:59:22;101742.25;;;8.01;100.00
77626;BME280;66794;43.764;10.436;2023-02-23T03:02:14;101742.78;;;7.95;100.00
77626;BME280;66794;43.764;10.436;2023-02-23T03:04:59;101765.03;;;7.87;100.00
77626;BME280;66794;43.764;10.436;2023-02-23T03:08:00;101777.66;;;7.65;100.00
77626;BME280;66794;43.764;10.436;2023-02-23T03:10:57;101752.16;;;7.28;100.00
77626;BME280;66794;43.764;10.436;2023-02-23T03:14:32;101738.06;;;7.35;100.00
77626;BME280;66794;43.764;10.436;2023-02-23T03:23:25;101773.44;;;7.94;100.00
77626;BME280;66794;43.764;10.436;2023-02-23T03:26:14;101783.34;;;7.83;100.00
77626;BME280;66794;43.764;10.436;2023-02-23T03:29:17;101783.28;;;8.04;100.00
77626;BME280;66794;43.764;10.436;2023-02-23T03:32:10;101778.44;;;7.98;100.00
77626;BME280;66794;43.764;10.436;2023-02-23T03:35:08;101725.28;;;7.58;100.00
77626;BME280;66794;43.764;10.436;2023-02-23T03:38:01;101759.19;;;7.82;100.00
77626;BME280;66794;43.764;10.436;2023-02-23T03:40:49;101743.59;;;7.85;100.00
77626;BME280;66794;43.764;10.436;2023-02-23T03:43:36;101754.50;;;8.05;100.00
77626;BME280;66794;43.764;10.436;2023-02-23T03:46:24;101778.06;;;8.12;100.00
77626;BME280;66794;43.764;10.436;2023-02-23T03:49:10;101741.69;;;7.76;100.00
77626;BME280;66794;43.764;10.436;2023-02-23T03:52:03;101714.88;;;7.54;100.00
77626;BME280;66794;43.764;10.436;2023-02-23T03:54:53;101729.81;;;7.79;100.00
77626;BME280;66794;43.764;10.436;2023-02-23T03:57:40;101755.53;;;7.83;100.00
77626;BME280;66794;43.764;10.436;2023-02-23T04:00:32;101761.88;;;7.61;100.00
77626;BME280;66794;43.764;10.436;2023-02-23T04:03:18;101775.56;;;7.48;100.00
77626;BME280;66794;43.764;10.436;2023-02-23T04:06:07;101724.69;;;7.13;100.00
77626;BME280;66794;43.764;10.436;2023-02-23T04:08:55;101719.88;;;6.96;100.00
77626;BME280;66794;43.764;10.436;2023-02-23T04:11:50;101763.78;;;7.28;100.00
77626;BME280;66794;43.764;10.436;2023-02-23T04:14:53;101762.03;;;7.38;100.00
77626;BME280;66794;43.764;10.436;2023-02-23T04:17:24;101720.75;;;6.96;100.00
77626;BME280;66794;43.764;10.436;2023-02-23T04:19:53;101716.75;;;6.79;100.00
77626;BME280;66794;43.764;10.436;2023-02-23T04:22:19;101739.75;;;7.16;100.00
77626;BME280;66794;43.764;10.436;2023-02-23T04:24:45;101752.78;;;6.99;100.00
77626;BME280;66794;43.764;10.436;2023-02-23T04:27:12;101743.06;;;6.87;100.00
77626;BME280;66794;43.764;10.436;2023-02-23T04:29:38;101713.56;;;6.53;100.00
77626;BME280;66794;43.764;10.436;2023-02-23T04:32:04;101722.44;;;6.65;100.00
77626;BME280;66794;43.764;10.436;2023-02-23T04:34:30;101720.16;;;6.49;100.00
77626;BME280;66794;43.764;10.436;2023-02-23T04:36:55;101744.44;;;6.70;100.00
77626;BME280;66794;43.764;10.436;2023-02-23T04:39:21;101735.53;;;6.70;100.00
77626;BME280;66794;43.764;10.436;2023-02-23T04:41:46;101733.69;;;6.70;100.00
77626;BME280;66794;43.764;10.436;2023-02-23T04:44:15;101718.31;;;6.50;100.00
77626;BME280;66794;43.764;10.436;2023-02-23T04:46:41;101773.31;;;6.68;100.00
77626;BME280;66794;43.764;10.436;2023-02-23T04:49:07;101751.06;;;6.66;100.00
77626;BME280;66794;43.764;10.436;2023-02-23T04:51:32;101758.41;;;6.64;100.00
77626;BME280;66794;43.764;10.436;2023-02-23T04:53:58;101759.50;;;6.62;100.00
77626;BME280;66794;43.764;10.436;2023-02-23T04:56:24;101732.63;;;6.50;100.00
77626;BME280;66794;43.764;10.436;2023-02-23T04:58:50;101727.75;;;6.44;100.00
77626;BME280;66794;43.764;10.436;2023-02-23T05:01:15;101750.84;;;6.90;100.00
77626;BME280;66794;43.764;10.436;2023-02-23T05:03:41;101755.72;;;7.07;100.00
77626;BME280;66794;43.764;10.436;2023-02-23T05:06:06;101750.78;;;7.13;100.00
77626;BME280;66794;43.764;10.436;2023-02-23T05:08:32;101761.16;;;7.17;100.00
77626;BME280;66794;43.764;10.436;2023-02-23T05:10:57;101775.56;;;6.29;100.00
77626;BME280;66794;43.764;10.436;2023-02-23T05:13:23;101695.16;;;6.15;100.00
77626;BME280;66794;43.764;10.436;2023-02-23T05:15:48;101733.06;;;6.12;100.00
77626;BME280;66794;43.764;10.436;2023-02-23T05:18:14;101756.84;;;6.50;100.00
77626;BME280;66794;43.764;10.436;2023-02-23T05:20:42;101778.66;;;6.79;100.00
77626;BME280;66794;43.764;10.436;2023-02-23T05:23:11;101756.28;;;6.79;100.00
77626;BME280;66794;43.764;10.436;2023-02-23T05:25:38;101743.88;;;7.20;100.00
77626;BME280;66794;43.764;10.436;2023-02-23T05:28:04;101748.50;;;7.29;100.00
77626;BME280;66794;43.764;10.436;2023-02-23T05:30:30;101757.22;;;7.21;100.00
77626;BME280;66794;43.764;10.436;2023-02-23T05:32:55;101754.19;;;7.15;100.00
77626;BME280;66794;43.764;10.436;2023-02-23T05:35:21;101777.81;;;7.43;100.00
77626;BME280;66794;43.764;10.436;2023-02-23T05:37:46;101737.66;;;7.19;100.00
77626;BME280;66794;43.764;10.436;2023-02-23T05:40:12;101686.13;;;6.92;100.00
77626;BME280;66794;43.764;10.436;2023-02-23T05:42:37;101781.50;;;7.42;100.00
77626;BME280;66794;43.764;10.436;2023-02-23T05:45:04;101761.84;;;7.30;100.00
77626;BME280;66794;43.764;10.436;2023-02-23T05:47:30;101742.72;;;7.13;100.00
77626;BME280;66794;43.764;10.436;2023-02-23T05:49:56;101767.69;;;7.35;100.00
77626;BME280;66794;43.764;10.436;2023-02-23T05:52:22;101782.34;;;7.63;100.00
77626;BME280;66794;43.764;10.436;2023-02-23T05:54:48;101718.22;;;6.83;100.00
77626;BME280;66794;43.764;10.436;2023-02-23T05:57:14;101674.38;;;6.17;100.00
77626;BME280;66794;43.764;10.436;2023-02-23T05:59:40;101788.25;;;6.61;100.00
77626;BME280;66794;43.764;10.436;2023-02-23T06:02:05;101786.44;;;6.62;100.00
77626;BME280;66794;43.764;10.436;2023-02-23T06:04:31;101791.72;;;6.41;100.00
77626;BME280;66794;43.764;10.436;2023-02-23T06:06:57;101785.09;;;6.45;100.00
77626;BME280;66794;43.764;10.436;2023-02-23T06:09:23;101751.06;;;6.66;100.00
77626;BME280;66794;43.764;10.436;2023-02-23T06:11:49;101737.75;;;6.65;100.00
77626;BME280;66794;43.764;10.436;2023-02-23T06:14:14;101770.13;;;7.18;100.00
77626;BME280;66794;43.764;10.436;2023-02-23T06:16:40;101737.91;;;7.16;100.00
77626;BME280;66794;43.764;10.436;2023-02-23T06:19:09;101768.47;;;7.47;100.00
77626;BME280;66794;43.764;10.436;2023-02-23T06:21:35;101787.88;;;7.62;100.00
77626;BME280;66794;43.764;10.436;2023-02-23T06:24:00;101760.16;;;7.50;100.00
77626;BME280;66794;43.764;10.436;2023-02-23T06:26:27;101795.69;;;7.65;100.00
77626;BME280;66794;43.764;10.436;2023-02-23T06:28:52;101791.69;;;7.59;100.00
77626;BME280;66794;43.764;10.436;2023-02-23T06:31:18;101773.09;;;7.56;100.00
77626;BME280;66794;43.764;10.436;2023-02-23T06:33:44;101776.44;;;7.70;100.00
77626;BME280;66794;43.764;10.436;2023-02-23T06:36:09;101778.41;;;7.68;100.00
77626;BME280;66794;43.764;10.436;2023-02-23T06:38:35;101776.56;;;7.68;100.00
77626;BME280;66794;43.764;10.436;2023-02-23T06:41:06;101797.31;;;7.77;100.00
77626;BME280;66794;43.764;10.436;2023-02-23T06:43:32;101784.66;;;7.68;100.00
77626;BME280;66794;43.764;10.436;2023-02-23T06:45:58;101759.22;;;7.40;100.00
77626;BME280;66794;43.764;10.436;2023-02-23T06:48:23;101780.88;;;7.38;100.00
77626;BME280;66794;43.764;10.436;2023-02-23T06:50:48;101802.94;;;7.64;100.00
77626;BME280;66794;43.764;10.436;2023-02-23T06:53:14;101809.00;;;7.78;100.00
77626;BME280;66794;43.764;10.436;2023-02-23T06:55:39;101804.41;;;10.06;100.00
77626;BME280;66794;43.764;10.436;2023-02-23T06:58:05;101783.91;;;7.87;100.00
77626;BME280;66794;43.764;10.436;2023-02-23T07:00:32;101822.69;;;12.37;100.00
77626;BME280;66794;43.764;10.436;2023-02-23T07:02:57;101807.78;;;9.03;100.00
77626;BME280;66794;43.764;10.436;2023-02-23T07:05:24;101792.31;;;8.24;100.00
77626;BME280;66794;43.764;10.436;2023-02-23T07:07:50;101795.25;;;8.11;100.00
77626;BME280;66794;43.764;10.436;2023-02-23T07:10:16;101821.84;;;8.47;100.00
77626;BME280;66794;43.764;10.436;2023-02-23T07:12:42;101819.00;;;8.38;100.00
77626;BME280;66794;43.764;10.436;2023-02-23T07:15:08;101751.19;;;8.01;100.00
77626;BME280;66794;43.764;10.436;2023-02-23T07:17:35;101809.34;;;8.46;100.00
77626;BME280;66794;43.764;10.436;2023-02-23T07:20:01;101804.81;;;8.46;100.00
77626;BME280;66794;43.764;10.436;2023-02-23T07:22:26;101818.19;;;8.57;100.00
77626;BME280;66794;43.764;10.436;2023-02-23T07:24:55;101829.00;;;8.57;100.00
77626;BME280;66794;43.764;10.436;2023-02-23T07:27:20;101824.19;;;8.61;100.00
77626;BME280;66794;43.764;10.436;2023-02-23T07:29:46;101831.63;;;8.78;100.00
77626;BME280;66794;43.764;10.436;2023-02-23T07:32:11;101833.31;;;8.79;100.00
77626;BME280;66794;43.764;10.436;2023-02-23T07:34:37;101831.59;;;8.68;100.00
77626;BME280;66794;43.764;10.436;2023-02-23T07:37:03;101836.38;;;8.55;100.00
77626;BME280;66794;43.764;10.436;2023-02-23T07:39:29;101804.66;;;8.38;100.00
77626;BME280;66794;43.764;10.436;2023-02-23T07:41:55;101839.09;;;9.44;100.00
77626;BME280;66794;43.764;10.436;2023-02-23T07:44:21;101825.84;;;8.92;100.00
77626;BME280;66794;43.764;10.436;2023-02-23T07:46:46;101829.09;;;8.96;100.00
77626;BME280;66794;43.764;10.436;2023-02-23T07:49:12;101832.84;;;9.14;100.00
77626;BME280;66794;43.764;10.436;2023-02-23T07:51:39;101808.34;;;9.06;100.00
77626;BME280;66794;43.764;10.436;2023-02-23T07:54:05;101832.41;;;9.19;100.00
77626;BME280;66794;43.764;10.436;2023-02-23T07:56:31;101840.25;;;9.41;100.00
77626;BME280;66794;43.764;10.436;2023-02-23T07:58:57;101822.00;;;9.72;100.00
77626;BME280;66794;43.764;10.436;2023-02-23T08:01:22;101825.09;;;9.87;100.00
77626;BME280;66794;43.764;10.436;2023-02-23T08:03:48;101841.56;;;10.13;100.00
77626;BME280;66794;43.764;10.436;2023-02-23T08:06:18;101850.25;;;10.26;100.00
77626;BME280;66794;43.764;10.436;2023-02-23T08:08:44;101846.38;;;10.39;100.00
77626;BME280;66794;43.764;10.436;2023-02-23T08:11:10;101852.41;;;10.60;100.00
77626;BME280;66794;43.764;10.436;2023-02-23T08:13:36;101849.97;;;10.67;100.00
77626;BME280;66794;43.764;10.436;2023-02-23T08:16:02;101839.19;;;10.47;100.00
77626;BME280;66794;43.764;10.436;2023-02-23T08:18:28;101845.72;;;10.54;100.00
77626;BME280;66794;43.764;10.436;2023-02-23T08:20:59;101829.13;;;10.67;100.00
77626;BME280;66794;43.764;10.436;2023-02-23T08:23:25;101848.09;;;10.67;100.00
77626;BME280;66794;43.764;10.436;2023-02-23T08:25:50;101831.19;;;10.56;100.00
77626;BME280;66794;43.764;10.436;2023-02-23T08:28:18;101826.03;;;10.62;100.00
77626;BME280;66794;43.764;10.436;2023-02-23T08:30:43;101846.88;;;10.79;100.00
77626;BME280;66794;43.764;10.436;2023-02-23T08:33:08;101827.06;;;10.79;100.00
77626;BME280;66794;43.764;10.436;2023-02-23T08:35:34;101842.53;;;10.69;100.00
77626;BME280;66794;43.764;10.436;2023-02-23T08:37:59;101829.47;;;10.54;100.00
77626;BME280;66794;43.764;10.436;2023-02-23T08:40:25;101842.03;;;10.56;100.00
77626;BME280;66794;43.764;10.436;2023-02-23T08:42:51;101852.91;;;11.01;100.00
77626;BME280;66794;43.764;10.436;2023-02-23T08:45:17;101869.97;;;11.29;100.00
77626;BME280;66794;43.764;10.436;2023-02-23T08:47:43;101864.38;;;11.30;100.00
77626;BME280;66794;43.764;10.436;2023-02-23T08:50:09;101866.41;;;11.28;100.00
77626;BME280;66794;43.764;10.436;2023-02-23T08:52:36;101842.63;;;11.40;100.00
77626;BME280;66794;43.764;10.436;2023-02-23T08:55:03;101869.38;;;11.53;100.00
77626;BME280;66794;43.764;10.436;2023-02-23T08:57:31;101855.25;;;11.49;100.00
77626;BME280;66794;43.764;10.436;2023-02-23T08:59:57;101869.53;;;11.69;99.77
77626;BME280;66794;43.764;10.436;2023-02-23T09:02:23;101875.94;;;11.50;100.00
77626;BME280;66794;43.764;10.436;2023-02-23T09:04:49;101845.44;;;11.48;100.00
77626;BME280;66794;43.764;10.436;2023-02-23T09:07:16;101867.19;;;11.74;100.00
77626;BME280;66794;43.764;10.436;2023-02-23T09:09:41;101814.50;;;11.59;99.60
77626;BME280;66794;43.764;10.436;2023-02-23T09:12:07;101858.41;;;11.98;99.91
77626;BME280;66794;43.764;10.436;2023-02-23T09:14:32;101870.22;;;11.89;99.58
77626;BME280;66794;43.764;10.436;2023-02-23T09:16:58;101861.19;;;12.06;97.83
77626;BME280;66794;43.764;10.436;2023-02-23T09:19:24;101869.44;;;12.23;96.80
77626;BME280;66794;43.764;10.436;2023-02-23T09:21:51;101874.50;;;12.44;94.78
77626;BME280;66794;43.764;10.436;2023-02-23T09:24:19;101831.69;;;12.11;95.20
77626;BME280;66794;43.764;10.436;2023-02-23T09:26:46;101864.72;;;12.25;95.77
77626;BME280;66794;43.764;10.436;2023-02-23T09:29:12;101862.75;;;12.35;93.32
77626;BME280;66794;43.764;10.436;2023-02-23T09:31:38;101874.44;;;12.61;94.25
77626;BME280;66794;43.764;10.436;2023-02-23T09:34:03;101866.66;;;12.75;93.76
77626;BME280;66794;43.764;10.436;2023-02-23T09:36:29;101873.38;;;12.88;92.37
77626;BME280;66794;43.764;10.436;2023-02-23T09:38:57;101873.63;;;13.20;92.16
77626;BME280;66794;43.764;10.436;2023-02-23T09:49:22;101843.16;;;13.00;86.23
77626;BME280;66794;43.764;10.436;2023-02-23T09:51:53;101863.13;;;13.25;87.03
77626;BME280;66794;43.764;10.436;2023-02-23T09:54:29;101845.38;;;13.21;85.25
77626;BME280;66794;43.764;10.436;2023-02-23T09:57:00;101861.44;;;13.32;85.12
77626;BME280;66794;43.764;10.436;2023-02-23T09:59:28;101861.47;;;13.40;84.22
77626;BME280;66794;43.764;10.436;2023-02-23T10:04:40;101865.72;;;13.51;83.56
77626;BME280;66794;43.764;10.436;2023-02-23T10:12:57;101859.94;;;13.78;80.87
77626;BME280;66794;43.764;10.436;2023-02-23T10:15:39;101865.22;;;14.04;80.01
77626;BME280;66794;43.764;10.436;2023-02-23T10:23:13;101855.50;;;14.02;79.88
77626;BME280;66794;43.764;10.436;2023-02-23T10:25:47;101843.25;;;14.06;80.83
77626;BME280;66794;43.764;10.436;2023-02-23T10:28:16;101874.69;;;14.33;81.01
77626;BME280;66794;43.764;10.436;2023-02-23T10:30:44;101857.00;;;14.29;80.05
77626;BME280;66794;43.764;10.436;2023-02-23T10:35:41;101827.91;;;14.21;79.41
77626;BME280;66794;43.764;10.436;2023-02-23T10:38:12;101840.78;;;14.43;78.82
77626;BME280;66794;43.764;10.436;2023-02-23T10:40:39;101850.81;;;14.51;80.06
77626;BME280;66794;43.764;10.436;2023-02-23T10:43:05;101801.66;;;14.28;80.17
77626;BME280;66794;43.764;10.436;2023-02-23T10:45:36;101843.47;;;14.60;79.60
77626;BME280;66794;43.764;10.436;2023-02-23T10:48:06;101844.09;;;14.06;80.03
77626;BME280;66794;43.764;10.436;2023-02-23T10:50:35;101842.50;;;14.36;80.53
77626;BME280;66794;43.764;10.436;2023-02-23T10:53:15;101831.06;;;14.57;79.14
77626;BME280;66794;43.764;10.436;2023-02-23T10:55:44;101847.38;;;14.73;78.59
77626;BME280;66794;43.764;10.436;2023-02-23T10:58:15;101846.91;;;15.24;76.92
77626;BME280;66794;43.764;10.436;2023-02-23T11:00:57;101840.00;;;15.13;75.83
77626;BME280;66794;43.764;10.436;2023-02-23T11:05:49;101852.09;;;15.11;76.82
77626;BME280;66794;43.764;10.436;2023-02-23T11:13:48;101844.84;;;15.49;74.41
77626;BME280;66794;43.764;10.436;2023-02-23T11:16:15;101836.03;;;15.16;74.48
77626;BME280;66794;43.764;10.436;2023-02-23T11:18:50;101810.06;;;14.97;74.22
77626;BME280;66794;43.764;10.436;2023-02-23T11:23:56;101832.47;;;15.15;73.76
77626;BME280;66794;43.764;10.436;2023-02-23T11:26:42;101831.63;;;15.15;75.20
77626;BME280;66794;43.764;10.436;2023-02-23T11:29:15;101832.59;;;15.22;74.37
77626;BME280;66794;43.764;10.436;2023-02-23T11:31:56;101830.97;;;15.13;76.05
77626;BME280;66794;43.764;10.436;2023-02-23T11:34:28;101834.41;;;15.07;76.28
77626;BME280;66794;43.764;10.436;2023-02-23T11:37:00;101829.91;;;15.14;75.59
77626;BME280;66794;43.764;10.436;2023-02-23T11:39:26;101814.84;;;14.95;75.35
77626;BME280;66794;43.764;10.436;2023-02-23T11:42:14;101826.34;;;15.13;75.82
77626;BME280;66794;43.764;10.436;2023-02-23T11:44:40;101798.78;;;15.00;74.17
77626;BME280;66794;43.764;10.436;2023-02-23T11:47:13;101811.00;;;15.12;75.04
77626;BME280;66794;43.764;10.436;2023-02-23T11:49:44;101799.72;;;15.15;74.24
77626;BME280;66794;43.764;10.436;2023-02-23T11:52:21;101809.38;;;14.95;74.12
77626;BME280;66794;43.764;10.436;2023-02-23T11:54:59;101807.47;;;15.04;74.21
77626;BME280;66794;43.764;10.436;2023-02-23T11:57:29;101801.34;;;15.02;74.93
77626;BME280;66794;43.764;10.436;2023-02-23T11:59:58;101714.91;;;14.40;73.13
77626;BME280;66794;43.764;10.436;2023-02-23T12:02:27;101807.97;;;15.07;73.23
77626;BME280;66794;43.764;10.436;2023-02-23T12:05:21;101811.31;;;15.17;74.37
77626;BME280;66794;43.764;10.436;2023-02-23T12:07:55;101811.25;;;15.03;73.49
77626;BME280;66794;43.764;10.436;2023-02-23T12:10:41;101786.47;;;15.12;72.73
77626;BME280;66794;43.764;10.436;2023-02-23T12:15:41;101791.38;;;15.40;71.15
77626;BME280;66794;43.764;10.436;2023-02-23T12:20:55;101764.81;;;15.34;71.23
77626;BME280;66794;43.764;10.436;2023-02-23T12:23:25;101796.16;;;15.38;71.50
77626;BME280;66794;43.764;10.436;2023-02-23T12:26:08;101771.97;;;15.12;71.83
77626;BME280;66794;43.764;10.436;2023-02-23T12:34:04;101783.13;;;15.25;72.40
77626;BME280;66794;43.764;10.436;2023-02-23T12:36:47;101785.78;;;15.10;73.23
77626;BME280;66794;43.764;10.436;2023-02-23T12:39:27;101785.00;;;15.02;73.52
77626;BME280;66794;43.764;10.436;2023-02-23T12:42:25;101776.00;;;15.16;71.86
77626;BME280;66794;43.764;10.436;2023-02-23T12:44:58;101750.19;;;15.04;72.44
77626;BME280;66794;43.764;10.436;2023-02-23T12:50:31;101773.41;;;15.45;71.76
77626;BME280;66794;43.764;10.436;2023-02-23T12:53:06;101751.91;;;15.42;71.68
77626;BME280;66794;43.764;10.436;2023-02-23T12:58:28;101762.63;;;15.06;75.71
77626;BME280;66794;43.764;10.436;2023-02-23T13:01:09;101741.25;;;14.64;76.19
77626;BME280;66794;43.764;10.436;2023-02-23T13:08:55;101709.63;;;14.46;77.25
77626;BME280;66794;43.764;10.436;2023-02-23T13:17:45;101765.69;;;14.80;75.73
77626;BME280;66794;43.764;10.436;2023-02-23T13:19:57;101761.63;;;14.76;76.51
77626;BME280;66794;43.764;10.436;2023-02-23T13:22:41;101748.78;;;14.85;76.33
77626;BME280;66794;43.764;10.436;2023-02-23T13:25:28;101747.75;;;14.55;75.10
77626;BME280;66794;43.764;10.436;2023-02-23T13:27:59;101746.09;;;14.77;75.40
77626;BME280;66794;43.764;10.436;2023-02-23T13:30:28;101769.91;;;15.14;74.95
77626;BME280;66794;43.764;10.436;2023-02-23T13:32:57;101759.75;;;15.45;72.35
77626;BME280;66794;43.764;10.436;2023-02-23T13:35:24;101743.78;;;15.95;70.82
77626;BME280;66794;43.764;10.436;2023-02-23T13:43:22;101707.72;;;16.50;67.44
77626;BME280;66794;43.764;10.436;2023-02-23T13:49:01;101760.06;;;15.88;68.90
77626;BME280;66794;43.764;10.436;2023-02-23T13:51:40;101729.91;;;15.82;68.24
77626;BME280;66794;43.764;10.436;2023-02-23T13:56:46;101739.34;;;16.89;65.56
77626;BME280;66794;43.764;10.436;2023-02-23T13:59:17;101728.25;;;16.61;67.47
77626;BME280;66794;43.764;10.436;2023-02-23T14:01:46;101736.53;;;16.32;69.12
77626;BME280;66794;43.764;10.436;2023-02-23T14:04:22;101728.69;;;16.14;68.09
77626;BME280;66794;43.764;10.436;2023-02-23T14:07:03;101696.50;;;15.42;70.67
77626;BME280;66794;43.764;10.436;2023-02-23T14:09:31;101739.25;;;15.72;71.42
77626;BME280;66794;43.764;10.436;2023-02-23T14:15:27;101741.16;;;15.26;72.76
77626;BME280;66794;43.764;10.436;2023-02-23T14:18:00;101728.72;;;15.99;70.70
77626;BME280;66794;43.764;10.436;2023-02-23T14:23:26;101728.59;;;16.22;70.10
77626;BME280;66794;43.764;10.436;2023-02-23T14:26:12;101735.28;;;15.90;71.63
77626;BME280;66794;43.764;10.436;2023-02-23T14:28:47;101733.41;;;15.52;73.61
77626;BME280;66794;43.764;10.436;2023-02-23T14:31:33;101696.41;;;15.50;72.32
77626;BME280;66794;43.764;10.436;2023-02-23T14:34:06;101715.53;;;15.50;72.92
77626;BME280;66794;43.764;10.436;2023-02-23T14:36:35;101704.28;;;15.68;71.96
77626;BME280;66794;43.764;10.436;2023-02-23T14:41:37;101734.91;;;16.37;70.14
77626;BME280;66794;43.764;10.436;2023-02-23T14:46:37;101714.25;;;15.61;72.29
77626;BME280;66794;43.764;10.436;2023-02-23T14:49:17;101737.81;;;15.91;71.91
77626;BME280;66794;43.764;10.436;2023-02-23T14:51:48;101728.16;;;15.51;73.68